Time;durP1;ratioP1;P1;durP2;ratioP2;P2;SDS_P1;SDS_P2;PMS_P1;PMS_P2;Temp;Humidity;BMP_temperature;BMP_pressure;BME280_temperature;BME280_humidity;BME280_pressure;Samples;Min_cycle;Max_cycle;Signal;HPM_P1;HPM_P2
2021/03/25 00:01:03;;;;;;;5.88;3.40;;;12.40;68.10;;;;;;5058433;28;20037;-57
2021/03/25 00:03:28;;;;;;;4.30;2.70;;;12.00;69.90;;;;;;5045201;28;20494;-57
2021/03/25 00:05:54;;;;;;;6.45;2.80;;;12.10;70.70;;;;;;5044481;28;20510;-57
2021/03/25 00:08:24;;;;;;;5.22;2.83;;;12.10;69.10;;;;;;5043500;28;20037;-58
2021/03/25 00:10:51;;;;;;;5.63;2.20;;;12.30;66.50;;;;;;5051279;28;20119;-57
2021/03/25 00:13:17;;;;;;;4.65;2.38;;;12.40;66.00;;;;;;5064783;28;20025;-57
2021/03/25 00:15:44;;;;;;;3.47;2.30;;;12.50;65.90;;;;;;5064368;28;20029;-58
2021/03/25 00:18:13;;;;;;;2.92;1.88;;;12.60;67.40;;;;;;5064511;28;20056;-57
2021/03/25 00:20:39;;;;;;;5.05;3.15;;;12.60;65.70;;;;;;5062413;28;20028;-57
2021/03/25 00:23:05;;;;;;;5.18;2.95;;;12.50;67.00;;;;;;5054523;28;20029;-56
2021/03/25 00:25:34;;;;;;;4.05;2.58;;;12.50;67.40;;;;;;5043806;28;20035;-57
2021/03/25 00:28:00;;;;;;;5.15;3.33;;;12.30;68.00;;;;;;5045002;28;20035;-56
2021/03/25 00:30:28;;;;;;;5.97;3.08;;;12.10;68.70;;;;;;5044500;28;20479;-57
2021/03/25 00:32:55;;;;;;;4.88;2.85;;;12.00;68.50;;;;;;5044397;28;20502;-57
2021/03/25 00:35:25;;;;;;;4.30;2.60;;;12.00;68.10;;;;;;5062653;28;20025;-57
2021/03/25 00:37:50;;;;;;;4.68;2.78;;;11.90;67.70;;;;;;5064264;28;20028;-57
2021/03/25 00:40:17;;;;;;;4.20;2.55;;;12.10;67.80;;;;;;5064208;28;20104;-58
2021/03/25 00:42:44;;;;;;;4.15;2.88;;;12.10;69.40;;;;;;5064263;28;20503;-58
2021/03/25 00:45:44;;;;;;;5.85;3.53;;;12.20;69.00;;;;;;5061854;28;20032;-58
2021/03/25 00:48:11;;;;;;;4.55;3.08;;;12.40;68.40;;;;;;5062447;28;20046;-57
2021/03/25 00:50:40;;;;;;;5.38;2.88;;;12.20;69.10;;;;;;5062826;28;20024;-58
2021/03/25 00:53:08;;;;;;;5.70;3.40;;;12.30;69.70;;;;;;5058158;28;20024;-57
2021/03/25 00:55:35;;;;;;;5.82;3.40;;;12.20;70.10;;;;;;5057710;28;20052;-57
2021/03/25 00:58:00;;;;;;;5.30;2.70;;;12.10;69.80;;;;;;5063531;28;20120;-57
2021/03/25 01:00:29;;;;;;;5.95;3.45;;;12.00;70.00;;;;;;5063243;28;20107;-57
2021/03/25 01:02:55;;;;;;;6.82;3.45;;;11.50;70.60;;;;;;5064734;28;20032;-57
2021/03/25 01:05:23;;;;;;;3.88;2.70;;;11.00;72.70;;;;;;5061129;28;20052;-57
2021/03/25 01:07:49;;;;;;;5.53;3.10;;;11.40;72.80;;;;;;5063885;28;20645;-57
2021/03/25 01:10:28;;;;;;;4.53;2.92;;;11.60;72.40;;;;;;5063650;28;20514;-57
2021/03/25 01:12:56;;;;;;;5.07;3.47;;;11.70;72.40;;;;;;5063464;28;20545;-58
2021/03/25 01:15:22;;;;;;;6.07;3.35;;;11.70;73.00;;;;;;5044797;28;20016;-57
2021/03/25 01:17:53;;;;;;;5.50;3.03;;;11.70;73.20;;;;;;5050799;28;20095;-57
2021/03/25 01:20:28;;;;;;;5.55;3.08;;;11.60;71.50;;;;;;5045838;28;20025;-57
2021/03/25 01:22:53;;;;;;;4.80;3.10;;;11.60;71.60;;;;;;5045873;28;20082;-56
2021/03/25 01:25:21;;;;;;;5.28;3.50;;;11.70;72.10;;;;;;5046073;28;20529;-56
2021/03/25 01:27:47;;;;;;;5.05;3.25;;;11.60;72.60;;;;;;5046016;28;20104;-57
2021/03/25 01:30:14;;;;;;;6.45;3.65;;;11.50;73.20;;;;;;5053108;28;20016;-57
2021/03/25 01:32:40;;;;;;;11.95;5.47;;;11.30;73.60;;;;;;5066886;28;20024;-57
2021/03/25 01:35:09;;;;;;;17.67;7.82;;;11.30;73.70;;;;;;5064778;28;20107;-57
2021/03/25 01:37:37;;;;;;;16.67;8.27;;;11.40;73.90;;;;;;5058842;28;20043;-57
2021/03/25 01:40:29;;;;;;;17.60;7.93;;;11.30;73.90;;;;;;5045487;28;20031;-57
2021/03/25 01:43:13;;;;;;;15.48;6.97;;;11.30;74.30;;;;;;5047805;28;20053;-57
2021/03/25 01:46:19;;;;;;;11.85;5.80;;;11.30;74.80;;;;;;5048678;28;20875;-57
2021/03/25 01:48:51;;;;;;;12.48;5.55;;;11.20;75.10;;;;;;5048874;28;20025;-56
2021/03/25 01:51:33;;;;;;;9.75;4.85;;;11.20;74.70;;;;;;5049401;28;20558;-57
2021/03/25 01:54:19;;;;;;;9.27;4.60;;;11.20;75.30;;;;;;5049061;28;20028;-56
2021/03/25 01:57:06;;;;;;;9.75;5.28;;;11.30;74.70;;;;;;5049004;28;20108;-56
2021/03/25 01:59:46;;;;;;;7.75;4.68;;;11.30;75.70;;;;;;5048919;28;20910;-57
2021/03/25 02:02:49;;;;;;;7.10;4.28;;;11.20;76.10;;;;;;5048635;28;20098;-56
2021/03/25 02:05:40;;;;;;;7.75;3.95;;;11.10;75.60;;;;;;5048366;28;20036;-56
2021/03/25 02:08:34;;;;;;;6.13;3.40;;;10.90;75.00;;;;;;5048637;28;20099;-57
2021/03/25 02:11:03;;;;;;;5.20;3.10;;;10.90;74.60;;;;;;5065249;28;20029;-56
2021/03/25 02:13:38;;;;;;;6.30;3.40;;;10.70;74.90;;;;;;5069618;28;20391;-57
2021/03/25 02:16:14;;;;;;;5.53;3.10;;;10.50;76.80;;;;;;5068914;28;20020;-56
2021/03/25 02:19:14;;;;;;;6.45;3.70;;;10.30;77.90;;;;;;5057684;28;20399;-56
2021/03/25 02:22:01;;;;;;;6.47;3.63;;;10.20;78.30;;;;;;5051943;28;20718;-56
2021/03/25 02:24:56;;;;;;;8.40;3.95;;;10.20;78.50;;;;;;5047547;28;20074;-56
2021/03/25 02:27:44;;;;;;;;;;;10.20;78.10;;;;;;5048511;28;20052;-56
2021/03/25 02:30:20;;;;;;;7.63;4.18;;;10.20;78.50;;;;;;5049648;28;20431;-56
2021/03/25 02:32:54;;;;;;;6.25;3.65;;;10.00;78.80;;;;;;5048723;28;20071;-56
2021/03/25 02:35:43;;;;;;;5.50;3.05;;;10.10;78.20;;;;;;5048923;28;20040;-56
2021/03/25 02:38:14;;;;;;;4.53;3.03;;;10.10;77.90;;;;;;5048976;28;20081;-56
2021/03/25 02:40:45;;;;;;;5.18;3.45;;;10.20;78.00;;;;;;5049587;28;20098;-56
2021/03/25 02:43:28;;;;;;;5.00;3.28;;;10.20;78.80;;;;;;5049206;28;20034;-56
2021/03/25 02:46:16;;;;;;;6.90;3.67;;;10.10;79.20;;;;;;5047960;28;20028;-57
2021/03/25 02:48:45;;;;;;;5.90;3.33;;;9.90;79.60;;;;;;5047921;28;20061;-56
2021/03/25 02:51:31;;;;;;;6.15;3.40;;;10.00;80.20;;;;;;5048570;28;20028;-57
2021/03/25 02:53:57;;;;;;;6.10;3.25;;;10.00;80.00;;;;;;5047883;28;20570;-56
2021/03/25 02:56:39;;;;;;;5.05;3.13;;;9.80;80.90;;;;;;5048322;28;20056;-56
2021/03/25 02:59:13;;;;;;;6.82;3.47;;;9.90;80.90;;;;;;5063452;28;20375;-56
2021/03/25 03:01:44;;;;;;;5.35;3.38;;;9.80;80.60;;;;;;5069047;28;20032;-56
2021/03/25 03:04:26;;;;;;;6.82;3.70;;;9.80;81.20;;;;;;5068514;28;20048;-56
2021/03/25 03:07:03;;;;;;;5.05;3.03;;;9.70;80.00;;;;;;5068257;28;20078;-56
2021/03/25 03:09:36;;;;;;;5.25;3.58;;;9.50;79.80;;;;;;5052891;28;20040;-57
2021/03/25 03:12:09;;;;;;;6.82;3.33;;;9.50;80.50;;;;;;5045987;28;20043;-56
2021/03/25 03:14:41;;;;;;;5.65;3.35;;;9.40;80.30;;;;;;5048200;28;20036;-57
2021/03/25 03:17:18;;;;;;;5.68;2.85;;;9.40;80.70;;;;;;5047504;28;20021;-56
2021/03/25 03:19:52;;;;;;;5.22;3.03;;;9.40;81.10;;;;;;5047723;28;20029;-56
2021/03/25 03:22:18;;;;;;;;;;;9.30;81.40;;;;;;5048681;28;20079;-56
2021/03/25 03:24:48;;;;;;;5.45;3.25;;;9.50;81.20;;;;;;5048146;28;19909;-56
2021/03/25 03:27:31;;;;;;;6.80;3.85;;;9.50;81.50;;;;;;5047788;28;20029;-56
2021/03/25 03:30:01;;;;;;;7.37;4.10;;;9.40;82.40;;;;;;5059237;28;20477;-56
2021/03/25 03:32:50;;;;;;;6.20;3.78;;;9.50;82.30;;;;;;5067923;28;20028;-56
2021/03/25 03:35:38;;;;;;;5.63;3.55;;;9.50;81.50;;;;;;5066985;28;20067;-56
2021/03/25 03:38:37;;;;;;;5.70;3.50;;;9.50;81.30;;;;;;5065780;28;20032;-57
2021/03/25 03:41:05;;;;;;;7.32;4.25;;;9.60;81.80;;;;;;5066930;28;20522;-56
2021/03/25 03:43:33;;;;;;;5.80;3.80;;;9.30;82.70;;;;;;5067545;28;20490;-57
2021/03/25 03:46:06;;;;;;;5.20;3.38;;;9.30;82.70;;;;;;5066316;28;20052;-56
2021/03/25 03:48:40;;;;;;;6.90;3.75;;;9.30;82.50;;;;;;5063201;28;20032;-56
2021/03/25 03:51:09;;;;;;;;;;;9.10;83.30;;;;;;5047261;28;20039;-57
2021/03/25 03:53:37;;;;;;;5.28;3.63;;;9.10;84.50;;;;;;5047608;28;19908;-57
2021/03/25 03:56:11;;;;;;;6.18;3.53;;;9.20;84.50;;;;;;5047231;28;20027;-57
2021/03/25 03:58:50;;;;;;;8.02;4.00;;;9.10;84.30;;;;;;5046916;28;20607;-56
2021/03/25 04:01:22;;;;;;;5.53;3.67;;;8.90;85.80;;;;;;5046927;28;20397;-56
2021/03/25 04:03:54;;;;;;;6.38;3.92;;;9.00;85.30;;;;;;5046715;28;20025;-56
2021/03/25 04:06:40;;;;;;;5.88;3.28;;;9.00;84.50;;;;;;5046138;28;20021;-56
2021/03/25 04:09:45;;;;;;;6.63;3.83;;;8.80;84.90;;;;;;5046074;28;20071;-57
2021/03/25 04:12:32;;;;;;;7.55;4.45;;;8.70;85.00;;;;;;5061483;28;20048;-56
2021/03/25 04:15:07;;;;;;;7.57;3.90;;;8.50;85.70;;;;;;5066447;28;20097;-57
2021/03/25 04:17:38;;;;;;;6.50;3.97;;;8.50;86.10;;;;;;5066904;28;20077;-57
2021/03/25 04:20:11;;;;;;;5.32;3.33;;;8.40;86.00;;;;;;5052898;28;20116;-56
2021/03/25 04:22:43;;;;;;;6.65;3.47;;;8.40;86.00;;;;;;5046871;28;20036;-56
2021/03/25 04:25:28;;;;;;;7.35;3.58;;;8.40;86.20;;;;;;5046991;28;20112;-56
2021/03/25 04:28:03;;;;;;;5.50;3.53;;;8.50;86.00;;;;;;5046452;28;20035;-56
2021/03/25 04:30:31;;;;;;;;;;;8.70;85.60;;;;;;5046990;28;20021;-56
2021/03/25 04:32:57;;;;;;;8.02;4.57;;;9.00;85.10;;;;;;5046575;28;20418;-56
2021/03/25 04:35:23;;;;;;;6.50;4.15;;;9.20;84.60;;;;;;5046702;28;20120;-56
2021/03/25 04:37:50;;;;;;;7.28;3.70;;;9.10;83.80;;;;;;5046779;28;20032;-56
2021/03/25 04:40:30;;;;;;;6.90;3.78;;;9.20;83.80;;;;;;5045516;28;20407;-56
2021/03/25 04:42:56;;;;;;;8.52;4.22;;;9.10;84.70;;;;;;5046247;28;20491;-56
2021/03/25 04:45:33;;;;;;;6.85;4.00;;;9.10;85.10;;;;;;5045730;28;20025;-57
2021/03/25 04:48:02;;;;;;;9.43;4.50;;;9.00;85.40;;;;;;5045910;28;20039;-56
2021/03/25 04:50:36;;;;;;;8.85;5.13;;;8.80;86.00;;;;;;5059410;28;20029;-56
2021/03/25 04:53:07;;;;;;;;;;;8.90;86.10;;;;;;5066563;28;20021;-56
2021/03/25 04:55:36;;;;;;;9.98;4.82;;;8.90;85.90;;;;;;5066405;28;20015;-56
2021/03/25 04:58:07;;;;;;;7.00;4.38;;;8.90;86.30;;;;;;5066012;28;20078;-56
2021/03/25 05:00:37;;;;;;;6.50;3.88;;;8.70;87.10;;;;;;5063954;28;20143;-56
2021/03/25 05:03:10;;;;;;;8.30;4.43;;;8.60;87.80;;;;;;5066239;28;20089;-56
2021/03/25 05:05:36;;;;;;;6.55;3.85;;;8.50;88.90;;;;;;5066062;28;20124;-56
2021/03/25 05:08:11;;;;;;;5.28;3.55;;;8.60;88.80;;;;;;5065123;28;20060;-56
2021/03/25 05:10:45;;;;;;;6.43;3.97;;;8.60;88.70;;;;;;5051061;28;20029;-56
2021/03/25 05:13:28;;;;;;;4.97;3.67;;;8.50;88.20;;;;;;5046172;28;20060;-57
2021/03/25 05:16:18;;;;;;;6.37;3.57;;;8.40;88.50;;;;;;5047845;28;20422;-56
2021/03/25 05:19:14;;;;;;;5.53;3.63;;;8.50;88.50;;;;;;5052936;28;20025;-56
2021/03/25 05:21:51;;;;;;;5.50;3.47;;;8.50;88.90;;;;;;5053677;28;20031;-56
2021/03/25 05:24:23;;;;;;;5.53;3.00;;;8.20;89.50;;;;;;5052494;28;20025;-56
2021/03/25 05:26:58;;;;;;;7.47;3.90;;;8.20;89.90;;;;;;5052721;28;20035;-56
2021/03/25 05:29:27;;;;;;;6.00;3.88;;;8.30;90.20;;;;;;5052529;28;20024;-56
2021/03/25 05:31:55;;;;;;;6.60;3.70;;;8.50;89.30;;;;;;5052243;28;20482;-56
2021/03/25 05:34:22;;;;;;;5.88;3.38;;;8.60;89.40;;;;;;5052747;28;20103;-56
2021/03/25 05:36:53;;;;;;;7.22;4.03;;;8.70;89.40;;;;;;5052784;28;20029;-56
2021/03/25 05:39:19;;;;;;;5.20;3.33;;;8.50;88.60;;;;;;5052541;28;20792;-56
2021/03/25 05:41:55;;;;;;;5.00;3.35;;;8.50;89.00;;;;;;5052734;28;20107;-56
2021/03/25 05:44:42;;;;;;;5.95;3.53;;;8.60;88.80;;;;;;5052199;28;20056;-56
2021/03/25 05:47:43;;;;;;;7.28;4.07;;;8.60;89.30;;;;;;5052129;28;20033;-56
2021/03/25 05:50:25;;;;;;;7.53;3.67;;;8.70;89.20;;;;;;5050323;28;20090;-57
2021/03/25 05:52:57;;;;;;;7.53;3.97;;;8.50;89.10;;;;;;5051221;28;20081;-56
2021/03/25 05:55:47;;;;;;;6.93;3.72;;;8.50;90.10;;;;;;5052115;28;20025;-56
2021/03/25 05:58:34;;;;;;;7.20;4.00;;;8.70;89.60;;;;;;5052664;28;20037;-56
2021/03/25 06:01:14;;;;;;;10.85;4.07;;;8.60;89.60;;;;;;5051528;28;20029;-56
2021/03/25 06:03:46;;;;;;;8.52;4.00;;;8.70;90.00;;;;;;5053041;28;20043;-56
2021/03/25 06:06:27;;;;;;;6.15;4.18;;;8.70;90.00;;;;;;5052746;28;20039;-57
2021/03/25 06:09:40;;;;;;;5.55;3.80;;;8.80;89.70;;;;;;5067097;28;20033;-56
2021/03/25 06:12:15;;;;;;;7.95;4.53;;;8.80;90.00;;;;;;5052194;28;20069;-56
2021/03/25 06:14:43;;;;;;;6.20;3.67;;;8.60;89.90;;;;;;5053022;28;20047;-56
2021/03/25 06:17:42;;;;;;;8.13;4.75;;;8.80;90.00;;;;;;5052557;28;20100;-56
2021/03/25 06:20:22;;;;;;;7.78;4.93;;;9.00;90.70;;;;;;5051983;28;20035;-56
2021/03/25 06:23:09;;;;;;;8.27;5.10;;;9.00;90.90;;;;;;5051876;28;20059;-56
2021/03/25 06:25:58;;;;;;;9.82;5.60;;;9.10;90.80;;;;;;5050495;28;20021;-56
2021/03/25 06:28:44;;;;;;;9.15;5.63;;;9.20;90.80;;;;;;5049312;28;20181;-56
2021/03/25 06:31:40;;;;;;;10.45;5.32;;;9.20;90.60;;;;;;5049329;28;20494;-56
2021/03/25 06:34:34;;;;;;;7.18;4.80;;;9.20;90.60;;;;;;5048377;28;20033;-56
2021/03/25 06:37:24;;;;;;;9.57;5.00;;;9.30;90.40;;;;;;5048808;28;20035;-56
2021/03/25 06:40:17;;;;;;;10.32;5.25;;;9.30;90.70;;;;;;5056546;28;20037;-56
2021/03/25 06:43:12;;;;;;;7.32;4.75;;;9.40;90.70;;;;;;5048820;28;20036;-56
2021/03/25 06:45:42;;;;;;;6.88;4.50;;;9.40;90.80;;;;;;5048117;28;20045;-56
2021/03/25 06:48:16;;;;;;;8.85;4.63;;;9.40;90.70;;;;;;5048615;28;20029;-56
2021/03/25 06:50:53;;;;;;;8.30;4.70;;;9.30;90.90;;;;;;5048550;28;20116;-56
2021/03/25 06:53:26;;;;;;;6.38;4.22;;;9.20;91.10;;;;;;5047920;28;20037;-56
2021/03/25 06:56:00;;;;;;;6.93;4.53;;;9.40;90.60;;;;;;5048345;28;20043;-56
2021/03/25 06:58:34;;;;;;;6.63;4.13;;;9.40;90.90;;;;;;5048607;28;20044;-56
2021/03/25 07:01:25;;;;;;;6.60;4.03;;;9.40;91.90;;;;;;5049152;28;20028;-56
2021/03/25 07:03:54;;;;;;;6.07;4.53;;;9.50;92.20;;;;;;5047879;28;20615;-56
2021/03/25 07:06:22;;;;;;;7.38;3.80;;;9.60;91.40;;;;;;5047757;28;20025;-56
2021/03/25 07:08:48;;;;;;;8.50;3.72;;;9.70;91.50;;;;;;5048169;28;20502;-57
2021/03/25 07:11:18;;;;;;;6.05;3.85;;;9.60;91.60;;;;;;5053067;28;20571;-57
2021/03/25 07:13:59;;;;;;;7.45;4.35;;;9.50;91.20;;;;;;5066860;28;20021;-57
2021/03/25 07:16:31;;;;;;;6.47;4.03;;;9.80;91.60;;;;;;5048675;28;20029;-57
2021/03/25 07:19:12;;;;;;;5.30;3.38;;;9.80;91.50;;;;;;5046624;28;20021;-57
2021/03/25 07:21:46;;;;;;;5.22;3.15;;;9.90;91.80;;;;;;5066609;28;20510;-57
2021/03/25 07:24:34;;;;;;;4.80;3.08;;;10.10;91.20;;;;;;5066969;28;20043;-57
2021/03/25 07:27:20;;;;;;;6.97;3.55;;;10.20;91.60;;;;;;5065864;28;20060;-56
2021/03/25 07:30:02;;;;;;;5.82;3.50;;;10.30;91.50;;;;;;5065335;28;20029;-56
2021/03/25 07:32:31;;;;;;;6.20;3.33;;;10.30;91.60;;;;;;5066378;28;20648;-55
2021/03/25 07:34:59;;;;;;;5.55;3.30;;;10.30;91.30;;;;;;5065881;28;20048;-56
2021/03/25 07:37:38;;;;;;;6.20;3.47;;;10.40;91.40;;;;;;5049881;28;20075;-55
2021/03/25 07:40:32;;;;;;;6.85;3.42;;;10.40;91.60;;;;;;5048635;28;20086;-56
2021/03/25 07:43:24;;;;;;;6.60;3.85;;;10.30;91.70;;;;;;5058754;28;20040;-56
2021/03/25 07:46:17;;;;;;;5.35;3.45;;;10.30;91.70;;;;;;5045580;28;20041;-57
2021/03/25 07:48:59;;;;;;;7.40;2.92;;;10.40;91.90;;;;;;5047603;28;20035;-56
2021/03/25 07:51:25;;;;;;;5.32;3.40;;;10.30;91.90;;;;;;5047173;28;20098;-56
2021/03/25 07:54:11;;;;;;;6.18;4.00;;;10.40;91.80;;;;;;5044876;28;20040;-56
2021/03/25 07:56:51;;;;;;;6.43;3.50;;;10.50;91.90;;;;;;5045697;28;20025;-55
2021/03/25 07:59:27;;;;;;;5.00;2.85;;;10.50;91.90;;;;;;5045457;28;20028;-56
2021/03/25 08:01:53;;;;;;;4.03;3.20;;;10.50;91.80;;;;;;5045717;28;20499;-56
2021/03/25 08:04:40;;;;;;;4.97;3.50;;;10.50;92.10;;;;;;5045601;28;20029;-55
2021/03/25 08:07:09;;;;;;;5.68;3.25;;;10.50;92.60;;;;;;5045191;28;20511;-56
2021/03/25 08:09:48;;;;;;;4.63;3.17;;;10.40;92.50;;;;;;5045642;28;20120;-56
2021/03/25 08:12:28;;;;;;;4.35;2.85;;;10.50;92.40;;;;;;5045400;28;20017;-57
2021/03/25 08:15:20;;;;;;;5.03;2.92;;;10.60;92.00;;;;;;5045142;28;20035;-57
2021/03/25 08:18:19;;;;;;;3.70;2.65;;;10.70;91.90;;;;;;5045627;28;20029;-56
2021/03/25 08:21:15;;;;;;;3.80;2.78;;;10.80;91.90;;;;;;5045307;28;20499;-56
2021/03/25 08:23:59;;;;;;;3.45;2.55;;;10.90;91.90;;;;;;5046130;28;20029;-56
2021/03/25 08:26:36;;;;;;;4.55;2.67;;;10.90;92.00;;;;;;5045424;28;20029;-56
2021/03/25 08:29:14;;;;;;;3.85;2.30;;;10.80;92.10;;;;;;5044911;28;20048;-56
2021/03/25 08:32:11;;;;;;;3.35;2.40;;;10.90;91.90;;;;;;5045815;28;20029;-56
2021/03/25 08:34:59;;;;;;;3.63;2.45;;;10.90;91.50;;;;;;5043963;28;20047;-55
2021/03/25 08:37:43;;;;;;;3.97;2.65;;;11.00;91.50;;;;;;5045070;28;20487;-56
2021/03/25 08:40:17;;;;;;;4.45;2.67;;;11.10;91.00;;;;;;5045443;28;20032;-56
2021/03/25 08:42:51;;;;;;;3.35;2.35;;;11.20;91.00;;;;;;5045849;28;20025;-56
2021/03/25 08:45:26;;;;;;;2.75;1.92;;;11.20;91.10;;;;;;5044731;28;20087;-55
2021/03/25 08:48:13;;;;;;;3.72;2.20;;;11.40;90.70;;;;;;5044756;28;20256;-57
2021/03/25 08:50:50;;;;;;;3.42;1.80;;;11.50;90.90;;;;;;5044703;28;20029;-56
2021/03/25 08:53:25;;;;;;;3.38;2.10;;;11.60;90.50;;;;;;5044482;28;20037;-57
2021/03/25 08:55:52;;;;;;;;;;;11.60;90.40;;;;;;5045365;28;20025;-56
2021/03/25 08:58:26;;;;;;;2.72;1.80;;;11.80;91.00;;;;;;5044996;28;20319;-56
2021/03/25 09:00:59;;;;;;;3.28;2.20;;;11.80;90.20;;;;;;5044500;28;20043;-56
2021/03/25 09:03:41;;;;;;;3.33;1.90;;;11.90;90.60;;;;;;5044666;28;20507;-56
2021/03/25 09:06:30;;;;;;;3.15;2.08;;;11.80;90.50;;;;;;5044464;28;20442;-56
2021/03/25 09:09:01;;;;;;;3.38;2.03;;;11.80;90.50;;;;;;5044455;28;20041;-56
2021/03/25 09:11:27;;;;;;;2.50;1.90;;;11.60;90.60;;;;;;5044881;28;20398;-56
2021/03/25 09:13:58;;;;;;;3.15;2.00;;;11.60;90.40;;;;;;5044362;28;20040;-56
2021/03/25 09:16:33;;;;;;;3.88;2.13;;;11.70;90.40;;;;;;5044718;28;20027;-56
2021/03/25 09:19:02;;;;;;;3.22;2.40;;;11.50;90.70;;;;;;5044462;28;20029;-56
2021/03/25 09:21:30;;;;;;;5.35;2.72;;;11.60;91.80;;;;;;5044410;28;20422;-56
2021/03/25 09:24:09;;;;;;;4.28;2.25;;;11.90;90.50;;;;;;5044529;28;20033;-56
2021/03/25 09:26:40;;;;;;;6.25;3.47;;;12.00;90.30;;;;;;5044609;28;20032;-56
2021/03/25 09:29:10;;;;;;;5.85;3.25;;;11.80;90.00;;;;;;5042324;28;20029;-56
2021/03/25 09:31:37;;;;;;;5.45;2.90;;;11.90;90.40;;;;;;5044990;28;20063;-56
2021/03/25 09:34:12;;;;;;;7.57;4.28;;;12.00;90.00;;;;;;5043207;28;20141;-56
2021/03/25 09:36:37;;;;;;;;;;;12.00;89.30;;;;;;5044976;28;20033;-56
2021/03/25 09:39:03;;;;;;;6.65;3.92;;;11.90;88.50;;;;;;5044232;28;20409;-57
2021/03/25 09:41:29;;;;;;;6.47;3.17;;;11.80;89.50;;;;;;5044732;28;20470;-56
2021/03/25 09:44:01;;;;;;;4.50;2.78;;;12.00;89.60;;;;;;5043083;28;20559;-57
2021/03/25 09:46:27;;;;;;;3.67;2.05;;;12.20;89.60;;;;;;5043949;28;20044;-57
2021/03/25 09:48:57;;;;;;;4.50;2.80;;;12.40;90.10;;;;;;5044368;28;20029;-57
2021/03/25 09:51:28;;;;;;;5.75;3.33;;;12.30;90.00;;;;;;5043990;28;20025;-57
2021/03/25 09:53:57;;;;;;;6.32;3.70;;;12.20;90.10;;;;;;5044154;28;20051;-57
2021/03/25 09:56:29;;;;;;;9.82;5.78;;;12.30;90.30;;;;;;5044320;28;20029;-56
2021/03/25 09:58:57;;;;;;;16.83;8.02;;;12.20;90.00;;;;;;5043975;28;20021;-56
2021/03/25 10:01:41;;;;;;;19.38;7.88;;;12.10;90.30;;;;;;5044717;28;20040;-55
2021/03/25 10:04:27;;;;;;;14.10;6.68;;;12.30;90.50;;;;;;5045953;28;20052;-56
2021/03/25 10:07:03;;;;;;;8.52;4.72;;;12.30;90.30;;;;;;5047494;28;20037;-55
2021/03/25 10:09:47;;;;;;;6.57;3.97;;;12.50;90.40;;;;;;5047938;28;20086;-56
2021/03/25 10:12:13;;;;;;;6.53;3.13;;;12.60;91.20;;;;;;5048595;28;20021;-55
2021/03/25 10:14:46;;;;;;;5.35;3.03;;;12.90;90.30;;;;;;5047755;28;20100;-56
2021/03/25 10:17:47;;;;;;;5.18;3.15;;;12.80;90.30;;;;;;5047998;28;20150;-55
2021/03/25 10:20:48;;;;;;;5.93;3.90;;;12.90;90.30;;;;;;5048404;28;20017;-55
2021/03/25 10:23:21;;;;;;;10.40;4.93;;;12.80;89.80;;;;;;5048134;28;20515;-56
2021/03/25 10:25:51;;;;;;;6.93;4.25;;;12.90;90.40;;;;;;5048145;28;20495;-55
2021/03/25 10:28:23;;;;;;;6.88;3.95;;;13.00;90.80;;;;;;5048027;28;20021;-56
2021/03/25 10:30:55;;;;;;;5.78;2.65;;;13.10;90.40;;;;;;5047871;28;20024;-55
2021/03/25 10:33:22;;;;;;;3.40;2.35;;;13.30;90.60;;;;;;5047557;28;20405;-56
2021/03/25 10:35:55;;;;;;;4.18;2.63;;;13.50;90.20;;;;;;5047764;28;20025;-56
2021/03/25 10:38:25;;;;;;;7.78;4.43;;;13.50;91.20;;;;;;5047423;28;20032;-57
2021/03/25 10:40:57;;;;;;;6.38;3.85;;;13.50;90.10;;;;;;5047449;28;20033;-56
2021/03/25 10:43:34;;;;;;;7.53;3.50;;;13.70;90.20;;;;;;5047020;28;20457;-56
2021/03/25 10:46:07;;;;;;;5.20;3.50;;;13.80;89.30;;;;;;5046144;28;20048;-57
2021/03/25 10:48:33;;;;;;;4.90;3.00;;;14.00;88.90;;;;;;5047249;28;20170;-55
2021/03/25 10:51:02;;;;;;;4.78;3.00;;;14.00;88.60;;;;;;5046413;28;20017;-56
2021/03/25 10:53:40;;;;;;;4.35;2.67;;;14.10;87.80;;;;;;5047199;28;20170;-56
2021/03/25 10:56:12;;;;;;;3.13;2.05;;;14.20;87.50;;;;;;5046858;28;20028;-57
2021/03/25 10:58:41;;;;;;;4.00;2.58;;;14.20;87.30;;;;;;5047160;28;20184;-56
2021/03/25 11:01:18;;;;;;;5.20;2.95;;;14.30;86.90;;;;;;5046690;28;20043;-56
2021/03/25 11:03:45;;;;;;;6.75;3.80;;;14.30;86.20;;;;;;5047988;28;20032;-56
2021/03/25 11:06:29;;;;;;;4.78;2.90;;;14.20;86.90;;;;;;5046530;28;20024;-56
2021/03/25 11:09:29;;;;;;;4.40;2.70;;;14.50;87.90;;;;;;5046570;28;20067;-57
2021/03/25 11:12:17;;;;;;;7.13;3.40;;;14.80;86.70;;;;;;5046983;28;20044;-57
2021/03/25 11:14:49;;;;;;;6.18;3.60;;;14.40;84.90;;;;;;5049063;28;20481;-56
2021/03/25 11:17:14;;;;;;;7.00;3.17;;;14.50;84.30;;;;;;5047316;28;20069;-55
2021/03/25 11:19:42;;;;;;;9.40;4.30;;;14.70;84.70;;;;;;5046775;28;20441;-55
2021/03/25 11:22:12;;;;;;;6.78;3.63;;;14.60;84.40;;;;;;5046698;28;20109;-56
2021/03/25 11:24:39;;;;;;;5.38;3.35;;;14.70;84.20;;;;;;5046361;28;20033;-56
2021/03/25 11:27:17;;;;;;;4.88;3.25;;;14.90;83.70;;;;;;5061542;28;20020;-56
2021/03/25 11:29:45;;;;;;;8.63;3.90;;;15.20;82.60;;;;;;5066804;28;20051;-55
2021/03/25 11:32:23;;;;;;;7.93;4.05;;;15.00;82.60;;;;;;5065501;28;20546;-57
2021/03/25 11:34:53;;;;;;;9.25;4.20;;;15.00;83.00;;;;;;5065989;28;20245;-55
2021/03/25 11:37:36;;;;;;;7.25;3.97;;;15.30;83.30;;;;;;5065982;28;20032;-57
2021/03/25 11:40:18;;;;;;;6.35;3.35;;;15.40;82.20;;;;;;5066474;28;20160;-56
2021/03/25 11:42:48;;;;;;;4.03;2.78;;;15.60;82.50;;;;;;5064837;28;20052;-56
2021/03/25 11:45:34;;;;;;;9.80;5.60;;;15.70;81.00;;;;;;5065426;28;20051;-56
2021/03/25 11:48:00;;;;;;;8.02;4.68;;;15.50;81.00;;;;;;5048639;28;20086;-56
2021/03/25 11:50:26;;;;;;;6.05;3.75;;;15.90;80.90;;;;;;5058069;28;20032;-57
2021/03/25 11:52:55;;;;;;;6.78;3.60;;;16.10;80.90;;;;;;5067156;28;20554;-57
2021/03/25 11:55:36;;;;;;;6.15;3.58;;;16.20;80.50;;;;;;5067419;28;20060;-56
2021/03/25 11:58:28;;;;;;;4.97;3.38;;;16.30;80.20;;;;;;5065724;28;20145;-57
2021/03/25 12:01:22;;;;;;;4.97;2.90;;;16.70;80.60;;;;;;5047487;28;20052;-57
2021/03/25 12:03:56;;;;;;;4.22;2.78;;;16.50;79.50;;;;;;5046879;28;20024;-56
2021/03/25 12:06:57;;;;;;;5.15;2.92;;;16.80;77.70;;;;;;5061554;28;20723;-56
2021/03/25 12:09:22;;;;;;;7.68;3.38;;;16.80;77.80;;;;;;5066423;28;20157;-57
2021/03/25 12:11:50;;;;;;;6.90;3.88;;;16.90;80.10;;;;;;5066890;28;20539;-57
2021/03/25 12:14:17;;;;;;;6.03;3.40;;;17.10;79.00;;;;;;5066858;28;20017;-56
2021/03/25 12:16:43;;;;;;;3.72;2.83;;;17.20;78.50;;;;;;5048352;28;20033;-56
2021/03/25 12:19:09;;;;;;;4.30;2.80;;;17.20;76.80;;;;;;5047183;28;20044;-57
2021/03/25 12:21:38;;;;;;;3.80;2.35;;;17.50;76.60;;;;;;5046446;28;20028;-57
2021/03/25 12:24:05;;;;;;;3.85;2.30;;;17.60;75.50;;;;;;5053981;28;20052;-56
2021/03/25 12:26:31;;;;;;;6.22;3.85;;;17.50;75.90;;;;;;5055064;28;20021;-56
2021/03/25 12:29:03;;;;;;;4.88;2.83;;;17.60;75.40;;;;;;5064255;28;20487;-56
2021/03/25 12:31:32;;;;;;;3.88;2.75;;;17.50;75.80;;;;;;5063074;28;20021;-56
2021/03/25 12:33:57;;;;;;;3.85;2.35;;;17.80;76.80;;;;;;5047225;28;20028;-56
2021/03/25 12:36:23;;;;;;;2.58;2.00;;;18.00;76.30;;;;;;5046799;28;20017;-56
2021/03/25 12:38:49;;;;;;;3.38;2.47;;;18.10;75.60;;;;;;5059825;28;20780;-56
2021/03/25 12:41:31;;;;;;;3.28;2.28;;;18.10;76.00;;;;;;5063280;28;20053;-56
2021/03/25 12:43:57;;;;;;;3.38;2.30;;;18.40;75.40;;;;;;5058483;28;20086;-56
2021/03/25 12:46:23;;;;;;;5.85;2.95;;;18.10;74.90;;;;;;5061310;28;20017;-56
2021/03/25 12:48:49;;;;;;;3.67;2.30;;;18.00;76.00;;;;;;5064557;28;20495;-56
2021/03/25 12:51:16;;;;;;;3.10;1.90;;;18.20;74.30;;;;;;5063212;28;20017;-56
2021/03/25 12:53:44;;;;;;;3.80;2.38;;;18.40;74.60;;;;;;5056919;28;20090;-56
2021/03/25 12:56:19;;;;;;;3.60;2.45;;;18.30;74.30;;;;;;5045408;28;20155;-56
2021/03/25 12:58:45;;;;;;;3.63;2.33;;;18.10;74.80;;;;;;5057774;28;20029;-56
2021/03/25 13:01:17;;;;;;;4.82;3.30;;;18.40;76.30;;;;;;5052610;28;20915;-56
2021/03/25 13:03:45;;;;;;;6.40;3.25;;;18.50;75.10;;;;;;5060659;28;20567;-56
2021/03/25 13:06:12;;;;;;;3.88;2.58;;;18.10;74.60;;;;;;5045928;28;20013;-56
2021/03/25 13:08:38;;;;;;;2.60;1.85;;;18.30;74.70;;;;;;5046181;28;20052;-56
2021/03/25 13:11:06;;;;;;;3.85;2.20;;;18.70;74.50;;;;;;5045822;28;20072;-56
2021/03/25 13:13:32;;;;;;;3.58;2.25;;;18.80;73.40;;;;;;5046454;28;20036;-56
2021/03/25 13:15:59;;;;;;;2.90;2.22;;;18.70;73.30;;;;;;5046425;28;20414;-56
2021/03/25 13:18:24;;;;;;;2.95;2.00;;;18.80;72.90;;;;;;5046202;28;20488;-55
2021/03/25 13:20:52;;;;;;;6.20;3.22;;;18.90;73.80;;;;;;5057879;28;20028;-56
2021/03/25 13:23:18;;;;;;;2.95;2.00;;;18.70;73.00;;;;;;5057026;28;20056;-56
2021/03/25 13:25:44;;;;;;;2.67;1.85;;;19.00;72.60;;;;;;5052487;28;20090;-56
2021/03/25 13:28:12;;;;;;;2.95;1.88;;;19.50;73.20;;;;;;5048363;28;20399;-56
2021/03/25 13:30:39;;;;;;;2.83;1.70;;;19.70;72.20;;;;;;5058342;28;20043;-58
2021/03/25 13:33:06;;;;;;;2.85;1.90;;;19.60;72.30;;;;;;5045818;28;20485;-57